sensor_id;sensor_type;location;lat;lon;timestamp;pressure;altitude;pressure_sealevel;temperature;humidity
12475;BME280;6302;42.624;23.334;2022-10-16T00:00:39;93911.06;;;9.07;100.00
12475;BME280;6302;42.624;23.334;2022-10-16T00:03:08;93918.22;;;9.07;100.00
12475;BME280;6302;42.624;23.334;2022-10-16T00:05:38;93918.94;;;9.00;100.00
12475;BME280;6302;42.624;23.334;2022-10-16T00:08:06;93918.91;;;8.97;100.00
12475;BME280;6302;42.624;23.334;2022-10-16T00:10:35;93914.72;;;8.92;100.00
12475;BME280;6302;42.624;23.334;2022-10-16T00:13:02;93916.59;;;8.92;100.00
12475;BME280;6302;42.624;23.334;2022-10-16T00:15:29;93927.88;;;8.89;100.00
12475;BME280;6302;42.624;23.334;2022-10-16T00:17:55;93919.56;;;8.87;100.00
12475;BME280;6302;42.624;23.334;2022-10-16T00:20:22;93924.84;;;8.83;100.00
12475;BME280;6302;42.624;23.334;2022-10-16T00:22:49;93920.66;;;8.82;100.00
12475;BME280;6302;42.624;23.334;2022-10-16T00:25:16;93916.53;;;8.81;100.00
12475;BME280;6302;42.624;23.334;2022-10-16T00:27:44;93924.41;;;8.78;100.00
12475;BME280;6302;42.624;23.334;2022-10-16T00:30:11;93931.56;;;8.74;100.00
12475;BME280;6302;42.624;23.334;2022-10-16T00:32:37;93933.03;;;8.71;100.00
12475;BME280;6302;42.624;23.334;2022-10-16T00:35:05;93938.28;;;8.68;100.00
12475;BME280;6302;42.624;23.334;2022-10-16T00:37:32;93933.72;;;8.65;100.00
12475;BME280;6302;42.624;23.334;2022-10-16T00:39:58;93939.38;;;8.63;100.00
12475;BME280;6302;42.624;23.334;2022-10-16T00:42:25;93942.00;;;8.63;100.00
12475;BME280;6302;42.624;23.334;2022-10-16T00:44:55;93941.97;;;8.60;100.00
12475;BME280;6302;42.624;23.334;2022-10-16T00:47:25;93940.06;;;8.57;100.00
12475;BME280;6302;42.624;23.334;2022-10-16T00:50:06;93935.94;;;8.59;100.00
12475;BME280;6302;42.624;23.334;2022-10-16T00:52:33;93932.88;;;8.57;100.00
12475;BME280;6302;42.624;23.334;2022-10-16T00:55:01;93926.09;;;8.56;100.00
12475;BME280;6302;42.624;23.334;2022-10-16T00:57:29;93930.63;;;8.56;100.00
12475;BME280;6302;42.624;23.334;2022-10-16T00:59:57;93912.00;;;8.41;100.00
12475;BME280;6302;42.624;23.334;2022-10-16T01:02:25;93929.47;;;8.53;100.00
12475;BME280;6302;42.624;23.334;2022-10-16T01:04:53;93944.91;;;8.51;100.00
12475;BME280;6302;42.624;23.334;2022-10-16T01:07:30;93939.19;;;8.45;100.00
12475;BME280;6302;42.624;23.334;2022-10-16T01:10:07;93944.84;;;8.44;100.00
12475;BME280;6302;42.624;23.334;2022-10-16T01:12:40;93933.78;;;8.31;100.00
12475;BME280;6302;42.624;23.334;2022-10-16T01:15:17;93932.31;;;8.37;100.00
12475;BME280;6302;42.624;23.334;2022-10-16T01:17:50;93944.75;;;8.37;100.00
12475;BME280;6302;42.624;23.334;2022-10-16T01:20:26;93945.50;;;8.37;100.00
12475;BME280;6302;42.624;23.334;2022-10-16T01:23:02;93939.06;;;8.35;100.00
12475;BME280;6302;42.624;23.334;2022-10-16T01:25:41;93932.63;;;8.32;100.00
12475;BME280;6302;42.624;23.334;2022-10-16T01:28:18;93934.88;;;8.30;100.00
12475;BME280;6302;42.624;23.334;2022-10-16T01:30:52;93927.31;;;8.29;100.00
12475;BME280;6302;42.624;23.334;2022-10-16T01:33:25;93919.31;;;8.22;100.00
12475;BME280;6302;42.624;23.334;2022-10-16T01:35:59;93926.47;;;8.25;100.00
12475;BME280;6302;42.624;23.334;2022-10-16T01:38:31;93919.69;;;8.24;100.00
12475;BME280;6302;42.624;23.334;2022-10-16T01:41:03;93920.47;;;8.24;100.00
12475;BME280;6302;42.624;23.334;2022-10-16T01:43:35;93927.63;;;8.24;100.00
12475;BME280;6302;42.624;23.334;2022-10-16T01:46:03;93917.38;;;8.19;100.00
12475;BME280;6302;42.624;23.334;2022-10-16T01:48:32;93926.06;;;8.19;100.00
12475;BME280;6302;42.624;23.334;2022-10-16T01:51:04;93926.47;;;8.21;100.00
12475;BME280;6302;42.624;23.334;2022-10-16T01:53:33;93932.84;;;8.20;100.00
12475;BME280;6302;42.624;23.334;2022-10-16T01:56:00;93930.91;;;8.17;100.00
12475;BME280;6302;42.624;23.334;2022-10-16T01:58:31;93932.47;;;8.18;100.00
12475;BME280;6302;42.624;23.334;2022-10-16T02:01:01;93926.81;;;8.20;100.00
12475;BME280;6302;42.624;23.334;2022-10-16T02:03:29;93924.16;;;8.20;100.00
12475;BME280;6302;42.624;23.334;2022-10-16T02:05:57;93899.91;;;8.07;100.00
12475;BME280;6302;42.624;23.334;2022-10-16T02:08:27;93929.88;;;8.25;100.00
12475;BME280;6302;42.624;23.334;2022-10-16T02:10:56;93935.25;;;8.29;100.00
12475;BME280;6302;42.624;23.334;2022-10-16T02:13:28;93936.41;;;8.31;100.00
12475;BME280;6302;42.624;23.334;2022-10-16T02:15:58;93941.69;;;8.31;100.00
12475;BME280;6302;42.624;23.334;2022-10-16T02:18:26;93952.25;;;8.31;100.00
12475;BME280;6302;42.624;23.334;2022-10-16T02:20:57;93942.00;;;8.26;100.00
12475;BME280;6302;42.624;23.334;2022-10-16T02:23:32;93956.78;;;8.31;100.00
12475;BME280;6302;42.624;23.334;2022-10-16T02:26:03;93938.13;;;8.20;100.00
12475;BME280;6302;42.624;23.334;2022-10-16T02:28:37;93955.97;;;8.27;100.00
12475;BME280;6302;42.624;23.334;2022-10-16T02:31:09;93961.25;;;8.27;100.00
12475;BME280;6302;42.624;23.334;2022-10-16T02:33:39;93961.56;;;8.25;100.00
12475;BME280;6302;42.624;23.334;2022-10-16T02:36:07;93958.16;;;8.25;100.00
12475;BME280;6302;42.624;23.334;2022-10-16T02:38:35;93959.31;;;8.24;100.00
12475;BME280;6302;42.624;23.334;2022-10-16T02:41:04;93960.06;;;8.24;100.00
12475;BME280;6302;42.624;23.334;2022-10-16T02:43:31;93960.38;;;8.19;100.00
12475;BME280;6302;42.624;23.334;2022-10-16T02:45:58;93967.16;;;8.20;100.00
12475;BME280;6302;42.624;23.334;2022-10-16T02:48:27;93968.31;;;8.19;100.00
12475;BME280;6302;42.624;23.334;2022-10-16T02:50:53;93961.41;;;8.11;100.00
12475;BME280;6302;42.624;23.334;2022-10-16T02:53:20;93969.38;;;8.15;100.00
12475;BME280;6302;42.624;23.334;2022-10-16T02:55:47;93967.84;;;8.14;100.00
12475;BME280;6302;42.624;23.334;2022-10-16T02:58:13;93972.38;;;8.13;100.00
12475;BME280;6302;42.624;23.334;2022-10-16T03:00:41;93966.31;;;8.13;100.00
12475;BME280;6302;42.624;23.334;2022-10-16T03:03:07;93977.25;;;8.11;100.00
12475;BME280;6302;42.624;23.334;2022-10-16T03:05:35;93984.41;;;8.11;100.00
12475;BME280;6302;42.624;23.334;2022-10-16T03:08:02;93971.91;;;8.08;100.00
12475;BME280;6302;42.624;23.334;2022-10-16T03:10:29;93977.56;;;8.06;100.00
12475;BME280;6302;42.624;23.334;2022-10-16T03:12:56;93973.00;;;8.03;100.00
12475;BME280;6302;42.624;23.334;2022-10-16T03:15:23;93980.53;;;8.01;100.00
12475;BME280;6302;42.624;23.334;2022-10-16T03:17:49;93978.25;;;8.00;100.00
12475;BME280;6302;42.624;23.334;2022-10-16T03:20:16;93979.75;;;8.01;100.00
12475;BME280;6302;42.624;23.334;2022-10-16T03:22:44;93989.53;;;7.97;100.00
12475;BME280;6302;42.624;23.334;2022-10-16T03:25:11;93987.22;;;7.95;100.00
12475;BME280;6302;42.624;23.334;2022-10-16T03:27:38;93994.34;;;7.91;100.00
12475;BME280;6302;42.624;23.334;2022-10-16T03:30:05;93996.22;;;7.91;100.00
12475;BME280;6302;42.624;23.334;2022-10-16T03:32:32;93990.91;;;7.87;100.00
12475;BME280;6302;42.624;23.334;2022-10-16T03:34:59;93984.81;;;7.83;100.00
12475;BME280;6302;42.624;23.334;2022-10-16T03:37:26;93987.41;;;7.79;100.00
12475;BME280;6302;42.624;23.334;2022-10-16T03:39:54;93993.00;;;7.74;100.00
12475;BME280;6302;42.624;23.334;2022-10-16T03:42:21;93992.59;;;7.72;100.00
12475;BME280;6302;42.624;23.334;2022-10-16T03:44:48;93996.69;;;7.70;100.00
12475;BME280;6302;42.624;23.334;2022-10-16T03:47:14;93989.09;;;7.65;100.00
12475;BME280;6302;42.624;23.334;2022-10-16T03:49:45;93992.13;;;7.67;100.00
12475;BME280;6302;42.624;23.334;2022-10-16T03:52:12;93989.09;;;7.65;100.00
12475;BME280;6302;42.624;23.334;2022-10-16T03:54:39;93991.31;;;7.63;100.00
12475;BME280;6302;42.624;23.334;2022-10-16T03:57:07;93983.00;;;7.61;100.00
12475;BME280;6302;42.624;23.334;2022-10-16T03:59:34;93980.31;;;7.57;100.00
12475;BME280;6302;42.624;23.334;2022-10-16T04:02:01;93978.38;;;7.54;100.00
12475;BME280;6302;42.624;23.334;2022-10-16T04:04:27;93978.75;;;7.53;100.00
12475;BME280;6302;42.624;23.334;2022-10-16T04:06:54;93978.31;;;7.51;100.00
12475;BME280;6302;42.624;23.334;2022-10-16T04:09:21;93982.09;;;7.50;100.00
12475;BME280;6302;42.624;23.334;2022-10-16T04:11:48;93976.41;;;7.48;100.00
12475;BME280;6302;42.624;23.334;2022-10-16T04:14:16;93977.47;;;7.43;100.00
12475;BME280;6302;42.624;23.334;2022-10-16T04:16:43;93974.41;;;7.41;100.00
12475;BME280;6302;42.624;23.334;2022-10-16T04:19:10;93984.63;;;7.43;100.00
12475;BME280;6302;42.624;23.334;2022-10-16T04:21:37;93986.13;;;7.44;100.00
12475;BME280;6302;42.624;23.334;2022-10-16T04:24:04;93986.84;;;7.41;100.00
12475;BME280;6302;42.624;23.334;2022-10-16T04:26:31;93978.13;;;7.37;100.00
12475;BME280;6302;42.624;23.334;2022-10-16T04:28:58;93990.13;;;7.34;100.00
12475;BME280;6302;42.624;23.334;2022-10-16T04:31:27;93986.72;;;7.34;100.00
12475;BME280;6302;42.624;23.334;2022-10-16T04:33:53;93991.59;;;7.32;100.00
12475;BME280;6302;42.624;23.334;2022-10-16T04:36:20;93998.75;;;7.31;100.00
12475;BME280;6302;42.624;23.334;2022-10-16T04:38:47;94002.16;;;7.32;100.00
12475;BME280;6302;42.624;23.334;2022-10-16T04:41:14;93995.38;;;7.31;100.00
12475;BME280;6302;42.624;23.334;2022-10-16T04:43:40;94000.28;;;7.32;100.00
12475;BME280;6302;42.624;23.334;2022-10-16T04:46:07;94006.25;;;7.29;100.00
12475;BME280;6302;42.624;23.334;2022-10-16T04:48:37;94011.94;;;7.31;100.00
12475;BME280;6302;42.624;23.334;2022-10-16T04:51:03;94017.97;;;7.32;100.00
12475;BME280;6302;42.624;23.334;2022-10-16T04:53:30;94008.19;;;7.32;100.00
12475;BME280;6302;42.624;23.334;2022-10-16T04:55:57;94020.22;;;7.30;100.00
12475;BME280;6302;42.624;23.334;2022-10-16T04:58:24;94017.63;;;7.33;100.00
12475;BME280;6302;42.624;23.334;2022-10-16T05:00:51;94022.53;;;7.35;100.00
12475;BME280;6302;42.624;23.334;2022-10-16T05:03:17;94028.22;;;7.37;100.00
12475;BME280;6302;42.624;23.334;2022-10-16T05:05:46;94030.16;;;7.40;100.00
12475;BME280;6302;42.624;23.334;2022-10-16T05:08:14;94021.44;;;7.36;100.00
12475;BME280;6302;42.624;23.334;2022-10-16T05:10:41;94027.22;;;7.45;100.00
12475;BME280;6302;42.624;23.334;2022-10-16T05:13:09;94032.91;;;7.47;100.00
12475;BME280;6302;42.624;23.334;2022-10-16T05:15:36;94031.06;;;7.51;100.00
12475;BME280;6302;42.624;23.334;2022-10-16T05:18:03;94028.09;;;7.52;100.00
12475;BME280;6302;42.624;23.334;2022-10-16T05:20:29;94031.19;;;7.58;100.00
12475;BME280;6302;42.624;23.334;2022-10-16T05:22:58;94038.78;;;7.63;100.00
12475;BME280;6302;42.624;23.334;2022-10-16T05:25:24;94043.03;;;7.67;100.00
12475;BME280;6302;42.624;23.334;2022-10-16T05:27:51;94044.19;;;7.70;100.00
12475;BME280;6302;42.624;23.334;2022-10-16T05:30:18;94034.84;;;7.76;100.00
12475;BME280;6302;42.624;23.334;2022-10-16T05:32:46;94034.53;;;7.81;100.00
12475;BME280;6302;42.624;23.334;2022-10-16T05:35:14;94044.78;;;7.86;100.00
12475;BME280;6302;42.624;23.334;2022-10-16T05:37:40;94039.13;;;7.87;100.00
12475;BME280;6302;42.624;23.334;2022-10-16T05:40:09;94047.91;;;7.95;100.00
12475;BME280;6302;42.624;23.334;2022-10-16T05:42:37;94036.66;;;7.98;100.00
12475;BME280;6302;42.624;23.334;2022-10-16T05:45:05;94043.16;;;8.04;100.00
12475;BME280;6302;42.624;23.334;2022-10-16T05:47:32;94031.91;;;8.07;100.00
12475;BME280;6302;42.624;23.334;2022-10-16T05:49:58;93985.53;;;7.80;100.00
12475;BME280;6302;42.624;23.334;2022-10-16T05:52:26;94052.75;;;8.16;100.00
12475;BME280;6302;42.624;23.334;2022-10-16T05:54:53;94050.03;;;8.12;100.00
12475;BME280;6302;42.624;23.334;2022-10-16T05:57:21;94060.03;;;8.26;100.00
12475;BME280;6302;42.624;23.334;2022-10-16T05:59:48;94065.22;;;8.19;100.00
12475;BME280;6302;42.624;23.334;2022-10-16T06:02:15;94061.59;;;8.27;100.00
12475;BME280;6302;42.624;23.334;2022-10-16T06:04:42;94071.13;;;8.35;100.00
12475;BME280;6302;42.624;23.334;2022-10-16T06:07:08;94068.97;;;8.44;100.00
12475;BME280;6302;42.624;23.334;2022-10-16T06:09:35;94078.88;;;8.50;100.00
12475;BME280;6302;42.624;23.334;2022-10-16T06:12:02;94084.53;;;8.49;100.00
12475;BME280;6302;42.624;23.334;2022-10-16T06:14:30;94081.19;;;8.56;100.00
12475;BME280;6302;42.624;23.334;2022-10-16T06:16:57;94081.66;;;8.65;100.00
12475;BME280;6302;42.624;23.334;2022-10-16T06:19:24;94090.53;;;8.79;100.00
12475;BME280;6302;42.624;23.334;2022-10-16T06:21:50;94087.88;;;8.79;100.00
12475;BME280;6302;42.624;23.334;2022-10-16T06:24:17;94101.22;;;8.90;100.00
12475;BME280;6302;42.624;23.334;2022-10-16T06:26:44;94101.53;;;8.85;100.00
12475;BME280;6302;42.624;23.334;2022-10-16T06:29:11;94104.25;;;8.92;100.00
12475;BME280;6302;42.624;23.334;2022-10-16T06:31:39;94101.28;;;8.97;100.00
12475;BME280;6302;42.624;23.334;2022-10-16T06:34:06;94099.81;;;8.99;100.00
12475;BME280;6302;42.624;23.334;2022-10-16T06:36:34;94101.38;;;9.04;100.00
12475;BME280;6302;42.624;23.334;2022-10-16T06:39:01;94108.66;;;9.14;100.00
12475;BME280;6302;42.624;23.334;2022-10-16T06:41:28;94117.06;;;9.23;100.00
12475;BME280;6302;42.624;23.334;2022-10-16T06:43:55;94119.47;;;9.35;100.00
12475;BME280;6302;42.624;23.334;2022-10-16T06:46:23;94122.50;;;9.41;100.00
12475;BME280;6302;42.624;23.334;2022-10-16T06:48:52;94118.09;;;9.52;100.00
12475;BME280;6302;42.624;23.334;2022-10-16T06:51:21;94126.53;;;9.64;100.00
12475;BME280;6302;42.624;23.334;2022-10-16T06:53:49;94130.34;;;9.67;100.00
12475;BME280;6302;42.624;23.334;2022-10-16T06:56:18;94129.88;;;9.58;100.00
12475;BME280;6302;42.624;23.334;2022-10-16T06:58:46;94133.00;;;9.70;100.00
12475;BME280;6302;42.624;23.334;2022-10-16T07:01:13;94140.28;;;9.80;100.00
12475;BME280;6302;42.624;23.334;2022-10-16T07:03:41;94147.09;;;9.81;100.00
12475;BME280;6302;42.624;23.334;2022-10-16T07:06:11;94149.81;;;9.89;100.00
12475;BME280;6302;42.624;23.334;2022-10-16T07:08:40;94149.47;;;9.94;100.00
12475;BME280;6302;42.624;23.334;2022-10-16T07:11:08;94145.69;;;9.95;100.00
12475;BME280;6302;42.624;23.334;2022-10-16T07:13:36;94144.59;;;10.03;100.00
12475;BME280;6302;42.624;23.334;2022-10-16T07:16:06;94143.16;;;10.09;100.00
12475;BME280;6302;42.624;23.334;2022-10-16T07:18:33;94151.22;;;10.23;100.00
12475;BME280;6302;42.624;23.334;2022-10-16T07:21:04;94157.41;;;10.41;100.00
12475;BME280;6302;42.624;23.334;2022-10-16T07:23:33;94155.91;;;10.43;100.00
12475;BME280;6302;42.624;23.334;2022-10-16T07:26:00;94158.25;;;10.59;100.00
12475;BME280;6302;42.624;23.334;2022-10-16T07:28:27;94158.25;;;10.56;100.00
12475;BME280;6302;42.624;23.334;2022-10-16T07:30:54;94162.88;;;10.69;100.00
12475;BME280;6302;42.624;23.334;2022-10-16T07:33:21;94154.56;;;10.74;100.00
12475;BME280;6302;42.624;23.334;2022-10-16T07:35:49;94157.28;;;10.92;100.00
12475;BME280;6302;42.624;23.334;2022-10-16T07:38:16;94164.50;;;10.91;100.00
12475;BME280;6302;42.624;23.334;2022-10-16T07:40:44;94159.22;;;10.95;100.00
12475;BME280;6302;42.624;23.334;2022-10-16T07:43:11;94151.63;;;10.97;100.00
12475;BME280;6302;42.624;23.334;2022-10-16T07:45:48;94171.03;;;11.15;100.00
12475;BME280;6302;42.624;23.334;2022-10-16T07:48:15;94164.22;;;11.10;100.00
12475;BME280;6302;42.624;23.334;2022-10-16T07:50:42;94167.66;;;11.22;100.00
12475;BME280;6302;42.624;23.334;2022-10-16T07:53:09;94170.69;;;11.31;100.00
12475;BME280;6302;42.624;23.334;2022-10-16T07:55:37;94178.72;;;11.38;100.00
12475;BME280;6302;42.624;23.334;2022-10-16T07:58:05;94143.44;;;11.34;100.00
12475;BME280;6302;42.624;23.334;2022-10-16T08:00:33;94167.75;;;11.50;100.00
12475;BME280;6302;42.624;23.334;2022-10-16T08:03:00;94176.13;;;11.66;100.00
12475;BME280;6302;42.624;23.334;2022-10-16T08:05:27;94169.69;;;11.70;100.00
12475;BME280;6302;42.624;23.334;2022-10-16T08:07:55;94176.91;;;11.73;100.00
12475;BME280;6302;42.624;23.334;2022-10-16T08:10:23;94183.78;;;11.92;100.00
12475;BME280;6302;42.624;23.334;2022-10-16T08:12:50;94175.03;;;11.95;100.00
12475;BME280;6302;42.624;23.334;2022-10-16T08:15:19;94174.69;;;11.97;100.00
12475;BME280;6302;42.624;23.334;2022-10-16T08:17:54;94174.28;;;12.05;100.00
12475;BME280;6302;42.624;23.334;2022-10-16T08:20:21;94177.72;;;12.16;100.00
12475;BME280;6302;42.624;23.334;2022-10-16T08:22:47;94179.25;;;12.31;100.00
12475;BME280;6302;42.624;23.334;2022-10-16T08:25:14;94179.59;;;12.40;100.00
12475;BME280;6302;42.624;23.334;2022-10-16T08:27:44;94180.00;;;12.46;100.00
12475;BME280;6302;42.624;23.334;2022-10-16T08:30:13;94176.91;;;12.62;100.00
12475;BME280;6302;42.624;23.334;2022-10-16T08:32:41;94175.00;;;12.69;100.00
12475;BME280;6302;42.624;23.334;2022-10-16T08:35:08;94173.81;;;12.84;100.00
12475;BME280;6302;42.624;23.334;2022-10-16T08:37:35;94171.53;;;13.00;100.00
12475;BME280;6302;42.624;23.334;2022-10-16T08:40:11;94152.91;;;12.86;100.00
12475;BME280;6302;42.624;23.334;2022-10-16T08:43:14;94177.56;;;13.15;100.00
12475;BME280;6302;42.624;23.334;2022-10-16T08:46:03;94173.72;;;13.30;100.00
12475;BME280;6302;42.624;23.334;2022-10-16T08:48:41;94184.66;;;13.46;100.00
12475;BME280;6302;42.624;23.334;2022-10-16T08:51:12;94175.19;;;13.42;100.00
12475;BME280;6302;42.624;23.334;2022-10-16T08:53:45;94182.00;;;13.50;100.00
12475;BME280;6302;42.624;23.334;2022-10-16T08:56:13;94134.56;;;13.24;100.00
12475;BME280;6302;42.624;23.334;2022-10-16T08:58:39;94184.94;;;13.69;100.00
12475;BME280;6302;42.624;23.334;2022-10-16T09:01:17;94186.06;;;13.72;100.00
12475;BME280;6302;42.624;23.334;2022-10-16T09:04:08;94185.97;;;13.90;100.00
12475;BME280;6302;42.624;23.334;2022-10-16T09:06:46;94193.91;;;13.97;100.00
12475;BME280;6302;42.624;23.334;2022-10-16T09:09:34;94190.06;;;14.01;100.00
12475;BME280;6302;42.624;23.334;2022-10-16T09:12:12;94192.66;;;14.12;100.00
12475;BME280;6302;42.624;23.334;2022-10-16T09:14:52;94182.66;;;14.23;100.00
12475;BME280;6302;42.624;23.334;2022-10-16T09:17:38;94187.47;;;14.42;100.00
12475;BME280;6302;42.624;23.334;2022-10-16T09:20:19;94180.19;;;14.50;100.00
12475;BME280;6302;42.624;23.334;2022-10-16T09:22:52;94191.13;;;14.62;100.00
12475;BME280;6302;42.624;23.334;2022-10-16T09:25:21;94187.25;;;14.70;98.57
12475;BME280;6302;42.624;23.334;2022-10-16T09:27:52;94185.63;;;14.80;95.95
12475;BME280;6302;42.624;23.334;2022-10-16T09:30:20;94185.63;;;14.80;94.46
12475;BME280;6302;42.624;23.334;2022-10-16T09:32:50;94180.19;;;14.90;93.82
12475;BME280;6302;42.624;23.334;2022-10-16T09:35:20;94189.59;;;15.02;90.91
12475;BME280;6302;42.624;23.334;2022-10-16T09:37:49;94188.81;;;15.02;89.89
12475;BME280;6302;42.624;23.334;2022-10-16T09:40:25;94186.09;;;15.09;90.98
12475;BME280;6302;42.624;23.334;2022-10-16T09:42:57;94179.94;;;15.12;91.22
12475;BME280;6302;42.624;23.334;2022-10-16T09:45:28;94184.59;;;15.04;91.18
12475;BME280;6302;42.624;23.334;2022-10-16T09:47:54;94177.78;;;14.99;91.30
12475;BME280;6302;42.624;23.334;2022-10-16T09:50:24;94178.47;;;15.07;89.97
12475;BME280;6302;42.624;23.334;2022-10-16T09:53:03;94171.13;;;15.18;92.69
12475;BME280;6302;42.624;23.334;2022-10-16T09:55:30;94165.28;;;15.27;90.55
12475;BME280;6302;42.624;23.334;2022-10-16T09:57:57;94166.81;;;15.28;89.44
12475;BME280;6302;42.624;23.334;2022-10-16T10:00:24;94171.28;;;15.38;89.62
12475;BME280;6302;42.624;23.334;2022-10-16T10:02:51;94167.25;;;15.53;81.35
12475;BME280;6302;42.624;23.334;2022-10-16T10:05:21;94167.41;;;15.42;78.24
12475;BME280;6302;42.624;23.334;2022-10-16T10:07:55;94166.09;;;15.57;73.54
12475;BME280;6302;42.624;23.334;2022-10-16T10:10:24;94153.28;;;15.72;70.72
12475;BME280;6302;42.624;23.334;2022-10-16T10:12:52;94158.91;;;15.78;68.24
12475;BME280;6302;42.624;23.334;2022-10-16T10:15:19;94157.81;;;15.75;67.66
12475;BME280;6302;42.624;23.334;2022-10-16T10:17:49;94159.28;;;15.80;68.28
12475;BME280;6302;42.624;23.334;2022-10-16T10:20:23;94155.59;;;15.97;67.01
12475;BME280;6302;42.624;23.334;2022-10-16T10:22:52;94147.72;;;16.13;63.88
12475;BME280;6302;42.624;23.334;2022-10-16T10:25:40;94155.69;;;16.16;60.76
12475;BME280;6302;42.624;23.334;2022-10-16T10:28:21;94149.53;;;16.19;60.65
12475;BME280;6302;42.624;23.334;2022-10-16T10:30:57;94143.31;;;16.26;60.73
12475;BME280;6302;42.624;23.334;2022-10-16T10:33:29;94142.84;;;16.31;59.55
12475;BME280;6302;42.624;23.334;2022-10-16T10:36:06;94137.84;;;16.33;59.83
12475;BME280;6302;42.624;23.334;2022-10-16T10:38:47;94135.81;;;16.41;59.40
12475;BME280;6302;42.624;23.334;2022-10-16T10:41:36;94143.66;;;16.51;59.29
12475;BME280;6302;42.624;23.334;2022-10-16T10:44:14;94138.03;;;16.69;60.61
12475;BME280;6302;42.624;23.334;2022-10-16T10:46:48;94136.38;;;16.75;54.87
12475;BME280;6302;42.624;23.334;2022-10-16T10:49:29;94120.91;;;16.86;56.75
12475;BME280;6302;42.624;23.334;2022-10-16T10:52:12;94119.22;;;16.92;56.29
12475;BME280;6302;42.624;23.334;2022-10-16T10:54:49;94118.41;;;16.95;58.17
12475;BME280;6302;42.624;23.334;2022-10-16T10:57:22;94122.09;;;17.01;56.11
12475;BME280;6302;42.624;23.334;2022-10-16T11:00:03;94120.53;;;17.04;58.35
12475;BME280;6302;42.624;23.334;2022-10-16T11:02:37;94115.59;;;17.22;59.91
12475;BME280;6302;42.624;23.334;2022-10-16T11:05:21;94119.06;;;17.38;58.84
12475;BME280;6302;42.624;23.334;2022-10-16T11:07:53;94115.06;;;17.46;54.08
12475;BME280;6302;42.624;23.334;2022-10-16T11:10:24;94101.25;;;17.48;54.17
12475;BME280;6302;42.624;23.334;2022-10-16T11:12:57;94106.97;;;17.50;49.50
12475;BME280;6302;42.624;23.334;2022-10-16T11:15:28;94103.25;;;17.64;53.04
12475;BME280;6302;42.624;23.334;2022-10-16T11:18:00;94100.66;;;17.76;52.26
12475;BME280;6302;42.624;23.334;2022-10-16T11:20:32;94106.41;;;17.94;50.46
12475;BME280;6302;42.624;23.334;2022-10-16T11:23:07;94098.75;;;17.93;49.19
12475;BME280;6302;42.624;23.334;2022-10-16T11:25:39;94106.31;;;17.98;47.50
12475;BME280;6302;42.624;23.334;2022-10-16T11:28:10;94100.72;;;17.92;48.13
12475;BME280;6302;42.624;23.334;2022-10-16T11:30:43;94095.25;;;17.96;47.21
12475;BME280;6302;42.624;23.334;2022-10-16T11:33:24;94095.56;;;17.98;46.75
12475;BME280;6302;42.624;23.334;2022-10-16T11:36:02;94093.38;;;17.93;47.52
12475;BME280;6302;42.624;23.334;2022-10-16T11:38:34;94093.91;;;18.04;46.37
12475;BME280;6302;42.624;23.334;2022-10-16T11:41:12;94095.25;;;18.12;43.87
12475;BME280;6302;42.624;23.334;2022-10-16T11:43:43;94101.53;;;18.05;46.09
12475;BME280;6302;42.624;23.334;2022-10-16T11:46:15;94103.38;;;18.08;45.54
12475;BME280;6302;42.624;23.334;2022-10-16T11:48:45;94091.03;;;17.95;47.55
12475;BME280;6302;42.624;23.334;2022-10-16T11:51:20;94097.44;;;18.17;47.44
12475;BME280;6302;42.624;23.334;2022-10-16T11:53:55;94096.56;;;18.20;45.32
12475;BME280;6302;42.624;23.334;2022-10-16T11:56:26;94096.06;;;18.25;45.76
12475;BME280;6302;42.624;23.334;2022-10-16T11:58:58;94103.22;;;18.32;42.91
12475;BME280;6302;42.624;23.334;2022-10-16T12:01:31;94105.63;;;18.26;41.39
12475;BME280;6302;42.624;23.334;2022-10-16T12:04:07;94097.59;;;18.26;43.37
12475;BME280;6302;42.624;23.334;2022-10-16T12:06:43;94103.22;;;18.32;42.27
12475;BME280;6302;42.624;23.334;2022-10-16T12:09:16;94091.78;;;18.28;41.70
12475;BME280;6302;42.624;23.334;2022-10-16T12:11:48;94096.25;;;18.34;41.92
12475;BME280;6302;42.624;23.334;2022-10-16T12:14:33;94100.56;;;18.44;43.12
12475;BME280;6302;42.624;23.334;2022-10-16T12:17:02;94098.94;;;18.34;40.27
12475;BME280;6302;42.624;23.334;2022-10-16T12:19:32;94098.41;;;18.39;40.83
12475;BME280;6302;42.624;23.334;2022-10-16T12:22:00;94094.22;;;18.38;43.08
12475;BME280;6302;42.624;23.334;2022-10-16T12:24:34;94098.41;;;18.55;43.82
12475;BME280;6302;42.624;23.334;2022-10-16T12:27:05;94087.16;;;18.60;42.72
12475;BME280;6302;42.624;23.334;2022-10-16T12:29:35;94099.03;;;18.75;43.35
12475;BME280;6302;42.624;23.334;2022-10-16T12:32:04;94104.31;;;18.79;42.45
12475;BME280;6302;42.624;23.334;2022-10-16T12:34:38;94101.41;;;18.73;41.55
12475;BME280;6302;42.624;23.334;2022-10-16T12:37:14;94105.47;;;18.33;42.29
12475;BME280;6302;42.624;23.334;2022-10-16T12:39:46;94099.34;;;18.33;44.24
12475;BME280;6302;42.624;23.334;2022-10-16T12:42:24;94093.78;;;18.40;42.82
12475;BME280;6302;42.624;23.334;2022-10-16T12:44:57;94100.34;;;18.39;44.16
12475;BME280;6302;42.624;23.334;2022-10-16T12:47:37;94096.56;;;18.52;45.80
12475;BME280;6302;42.624;23.334;2022-10-16T12:50:24;94101.16;;;18.68;45.69
12475;BME280;6302;42.624;23.334;2022-10-16T12:52:51;94103.66;;;18.75;43.19
12475;BME280;6302;42.624;23.334;2022-10-16T12:55:20;94105.69;;;18.71;41.67
12475;BME280;6302;42.624;23.334;2022-10-16T12:58:06;94105.91;;;18.76;41.45
12475;BME280;6302;42.624;23.334;2022-10-16T13:00:41;94109.78;;;18.75;43.75
12475;BME280;6302;42.624;23.334;2022-10-16T13:03:44;94108.50;;;18.80;42.61
12475;BME280;6302;42.624;23.334;2022-10-16T13:06:20;94108.75;;;18.86;43.41
12475;BME280;6302;42.624;23.334;2022-10-16T13:11:59;94100.63;;;18.73;42.06
12475;BME280;6302;42.624;23.334;2022-10-16T13:17:49;94111.47;;;18.69;44.47
12475;BME280;6302;42.624;23.334;2022-10-16T13:20:26;94112.66;;;18.68;43.61